Time;durP1;ratioP1;P1;durP2;ratioP2;P2;SDS_P1;SDS_P2;PMS_P1;PMS_P2;Temp;Humidity;BMP_temperature;BMP_pressure;BME280_temperature;BME280_humidity;BME280_pressure;Samples;Min_cycle;Max_cycle;Signal;HPM_P1;HPM_P2
2023/09/11 00:01:58;;;;;;;5.65;5.20;;;;;;;;;;5100471;28;20210;-64
2023/09/11 00:04:26;;;;;;;5.47;5.07;;;;;;;;;;5099739;28;20204;-64
2023/09/11 00:06:55;;;;;;;5.45;5.05;;;;;;;;;;5100330;28;20200;-64
2023/09/11 00:09:22;;;;;;;5.07;4.68;;;;;;;;;;5100159;28;20234;-63
2023/09/11 00:11:50;;;;;;;5.72;5.32;;;;;;;;;;5099974;28;20204;-64
2023/09/11 00:14:18;;;;;;;5.65;5.25;;;;;;;;;;5099829;28;20207;-64
2023/09/11 00:16:45;;;;;;;5.47;5.07;;;;;;;;;;5099990;28;20283;-64
2023/09/11 00:19:14;;;;;;;5.78;5.38;;;;;;;;;;5100044;28;20203;-64
2023/09/11 00:21:41;;;;;;;5.60;5.20;;;;;;;;;;5099507;28;20295;-64
2023/09/11 00:24:10;;;;;;;5.25;4.90;;;;;;;;;;5099971;28;20298;-64
2023/09/11 00:26:38;;;;;;;5.60;5.13;;;;;;;;;;5099722;28;20215;-64
2023/09/11 00:29:05;;;;;;;5.40;5.00;;;;;;;;;;5099612;28;20219;-64
2023/09/11 00:31:33;;;;;;;5.40;5.00;;;;;;;;;;5099543;28;20204;-64
2023/09/11 00:34:01;;;;;;;5.78;5.38;;;;;;;;;;5099348;28;20306;-63
2023/09/11 00:36:28;;;;;;;5.38;4.97;;;;;;;;;;5099081;28;20204;-63
2023/09/11 00:38:56;;;;;;;5.28;4.88;;;;;;;;;;5099398;28;20203;-63
2023/09/11 00:41:25;;;;;;;5.20;4.80;;;;;;;;;;5099300;28;20203;-63
2023/09/11 00:43:53;;;;;;;5.40;4.90;;;;;;;;;;5099420;28;20277;-64
2023/09/11 00:46:21;;;;;;;5.32;4.95;;;;;;;;;;5099274;28;20211;-64
2023/09/11 00:48:53;;;;;;;5.43;5.03;;;;;;;;;;5099305;28;20204;-64
2023/09/11 00:51:21;;;;;;;5.30;4.90;;;;;;;;;;5099126;28;20233;-64
2023/09/11 00:53:49;;;;;;;5.82;5.40;;;;;;;;;;5098530;28;20211;-63
2023/09/11 00:56:16;;;;;;;5.50;5.10;;;;;;;;;;5098347;28;20551;-63
2023/09/11 00:58:46;;;;;;;5.40;5.00;;;;;;;;;;5098097;28;20240;-63
2023/09/11 01:01:15;;;;;;;4.88;4.57;;;;;;;;;;5098574;28;20235;-63
2023/09/11 01:03:43;;;;;;;5.20;4.80;;;;;;;;;;5099182;28;20249;-63
2023/09/11 01:06:11;;;;;;;5.80;5.30;;;;;;;;;;5098443;28;20265;-63
2023/09/11 01:08:39;;;;;;;5.18;4.78;;;;;;;;;;5098470;28;20265;-63
2023/09/11 01:11:06;;;;;;;5.53;5.13;;;;;;;;;;5097194;28;20830;-64
2023/09/11 01:13:34;;;;;;;5.40;5.00;;;;;;;;;;5097932;28;20598;-64
2023/09/11 01:16:07;;;;;;;5.65;5.22;;;;;;;;;;5097719;28;20236;-64
2023/09/11 01:18:37;;;;;;;5.38;4.97;;;;;;;;;;5098230;28;20223;-63
2023/09/11 01:21:14;;;;;;;5.43;5.03;;;;;;;;;;5098632;28;20582;-63
2023/09/11 01:23:53;;;;;;;5.10;4.65;;;;;;;;;;5098481;28;20624;-63
2023/09/11 01:26:30;;;;;;;5.60;5.10;;;;;;;;;;5097521;28;20227;-63
2023/09/11 01:29:11;;;;;;;5.40;5.00;;;;;;;;;;5097758;28;20479;-63
2023/09/11 01:31:39;;;;;;;5.18;4.78;;;;;;;;;;5098068;28;20200;-63
2023/09/11 01:34:07;;;;;;;5.43;5.03;;;;;;;;;;5098277;28;20203;-64
2023/09/11 01:36:35;;;;;;;5.60;5.20;;;;;;;;;;5098331;28;20204;-64
2023/09/11 01:39:03;;;;;;;5.20;4.80;;;;;;;;;;5098229;28;20207;-64
2023/09/11 01:41:33;;;;;;;5.53;5.13;;;;;;;;;;5098126;28;20203;-64
2023/09/11 01:44:06;;;;;;;5.45;5.05;;;;;;;;;;5098017;28;20229;-64
2023/09/11 01:46:35;;;;;;;5.72;5.32;;;;;;;;;;5098308;28;20300;-64
2023/09/11 01:49:03;;;;;;;5.70;5.30;;;;;;;;;;5098321;28;20204;-64
2023/09/11 01:51:32;;;;;;;5.50;5.10;;;;;;;;;;5098074;28;20236;-64
2023/09/11 01:54:00;;;;;;;5.35;4.95;;;;;;;;;;5097832;28;20207;-64
2023/09/11 01:56:28;;;;;;;5.47;5.07;;;;;;;;;;5097949;28;20228;-63
2023/09/11 01:58:57;;;;;;;5.57;5.07;;;;;;;;;;5096935;28;20240;-63
2023/09/11 02:01:26;;;;;;;5.43;5.03;;;;;;;;;;5098366;28;20214;-64
2023/09/11 02:03:55;;;;;;;5.15;4.75;;;;;;;;;;5098048;28;20230;-64
2023/09/11 02:06:23;;;;;;;5.30;4.90;;;;;;;;;;5097127;28;20203;-64
2023/09/11 02:08:51;;;;;;;5.40;5.00;;;;;;;;;;5098000;28;20214;-64
2023/09/11 02:11:18;;;;;;;5.35;4.95;;;;;;;;;;5096782;28;20227;-64
2023/09/11 02:13:46;;;;;;;5.60;5.20;;;;;;;;;;5097791;28;20211;-64
2023/09/11 02:16:13;;;;;;;5.40;5.00;;;;;;;;;;5097231;28;20792;-64
2023/09/11 02:18:41;;;;;;;5.38;4.93;;;;;;;;;;5098112;28;20238;-64
2023/09/11 02:21:10;;;;;;;5.25;4.85;;;;;;;;;;5097367;28;20214;-64
2023/09/11 02:23:38;;;;;;;5.32;4.93;;;;;;;;;;5097399;28;20210;-64
2023/09/11 02:26:05;;;;;;;5.68;5.28;;;;;;;;;;5097614;28;20204;-64
2023/09/11 02:28:33;;;;;;;5.28;4.88;;;;;;;;;;5097483;28;20595;-64
2023/09/11 02:31:01;;;;;;;5.40;5.00;;;;;;;;;;5097404;28;20227;-64
2023/09/11 02:33:29;;;;;;;5.60;5.20;;;;;;;;;;5097262;28;20651;-64
2023/09/11 02:35:58;;;;;;;6.10;5.50;;;;;;;;;;5097499;28;20214;-63
2023/09/11 02:38:27;;;;;;;5.07;4.68;;;;;;;;;;5097316;28;20614;-63
2023/09/11 02:40:55;;;;;;;5.20;4.80;;;;;;;;;;5097526;28;20200;-63
2023/09/11 02:43:22;;;;;;;5.38;4.97;;;;;;;;;;5096896;28;20282;-63
2023/09/11 02:45:50;;;;;;;5.30;4.90;;;;;;;;;;5097295;28;20203;-64
2023/09/11 02:48:18;;;;;;;5.43;5.03;;;;;;;;;;5097419;28;20257;-64
2023/09/11 02:50:45;;;;;;;5.90;5.30;;;;;;;;;;5097114;28;20224;-64
2023/09/11 02:53:16;;;;;;;5.78;5.38;;;;;;;;;;5097129;28;20214;-63
2023/09/11 02:55:45;;;;;;;5.50;5.10;;;;;;;;;;5097265;28;20493;-63
2023/09/11 02:58:13;;;;;;;5.40;5.00;;;;;;;;;;5096619;28;20239;-63
2023/09/11 03:00:41;;;;;;;5.35;4.95;;;;;;;;;;5097136;28;20257;-63
2023/09/11 03:03:10;;;;;;;5.70;5.30;;;;;;;;;;5097014;28;20218;-63
2023/09/11 03:05:38;;;;;;;5.22;4.90;;;;;;;;;;5097384;28;20203;-63
2023/09/11 03:08:06;;;;;;;5.47;5.07;;;;;;;;;;5097036;28;20204;-64
2023/09/11 03:10:33;;;;;;;5.20;4.80;;;;;;;;;;5097048;28;20228;-64
2023/09/11 03:13:03;;;;;;;5.35;4.95;;;;;;;;;;5097091;28;20214;-64
2023/09/11 03:15:31;;;;;;;5.88;5.47;;;;;;;;;;5096292;28;20204;-64
2023/09/11 03:17:59;;;;;;;5.80;5.40;;;;;;;;;;5098280;28;20203;-64
2023/09/11 03:20:27;;;;;;;6.20;5.63;;;;;;;;;;5100933;28;20200;-63
2023/09/11 03:22:54;;;;;;;5.60;5.20;;;;;;;;;;5100900;28;20226;-63
2023/09/11 03:25:22;;;;;;;5.28;4.88;;;;;;;;;;5100704;28;20204;-63
2023/09/11 03:27:50;;;;;;;5.35;4.95;;;;;;;;;;5100806;28;20208;-64
2023/09/11 03:30:19;;;;;;;5.60;5.20;;;;;;;;;;5099758;28;20227;-64
2023/09/11 03:32:47;;;;;;;5.50;5.10;;;;;;;;;;5099757;28;20269;-64
2023/09/11 03:35:14;;;;;;;5.55;5.15;;;;;;;;;;5100495;28;20237;-64
2023/09/11 03:37:42;;;;;;;5.78;5.35;;;;;;;;;;5100466;28;20211;-63
2023/09/11 03:40:13;;;;;;;5.55;5.07;;;;;;;;;;5100516;28;20284;-64
2023/09/11 03:42:41;;;;;;;5.50;5.10;;;;;;;;;;5099926;28;20212;-63
2023/09/11 03:45:09;;;;;;;5.97;5.47;;;;;;;;;;5100094;28;20587;-64
2023/09/11 03:47:38;;;;;;;5.45;5.05;;;;;;;;;;5100242;28;20212;-64
2023/09/11 03:50:06;;;;;;;5.60;5.20;;;;;;;;;;5099654;28;20204;-64
2023/09/11 03:52:34;;;;;;;5.30;4.90;;;;;;;;;;5100117;28;20253;-64
2023/09/11 03:55:02;;;;;;;6.22;5.72;;;;;;;;;;5099460;28;20207;-64
2023/09/11 03:57:29;;;;;;;4.75;4.45;;;;;;;;;;5099679;28;20568;-64
2023/09/11 03:59:57;;;;;;;5.65;5.25;;;;;;;;;;5099115;28;20207;-64
2023/09/11 04:02:25;;;;;;;5.68;5.28;;;;;;;;;;5099398;28;20243;-64
2023/09/11 04:04:53;;;;;;;5.45;5.05;;;;;;;;;;5099694;28;20295;-64
2023/09/11 04:07:21;;;;;;;5.90;5.50;;;;;;;;;;5099671;28;20211;-64
2023/09/11 04:09:48;;;;;;;5.43;5.03;;;;;;;;;;5099650;28;20264;-64
2023/09/11 04:12:17;;;;;;;5.78;5.38;;;;;;;;;;5099446;28;20318;-64
2023/09/11 04:14:44;;;;;;;5.60;5.20;;;;;;;;;;5099668;28;20209;-64
2023/09/11 04:17:12;;;;;;;5.55;5.15;;;;;;;;;;5099081;28;20699;-64
2023/09/11 04:19:39;;;;;;;5.80;5.40;;;;;;;;;;5099542;28;20241;-64
2023/09/11 04:22:08;;;;;;;5.00;4.70;;;;;;;;;;5099000;28;20199;-63
2023/09/11 04:24:36;;;;;;;5.63;5.22;;;;;;;;;;5099575;28;20246;-63
2023/09/11 04:27:04;;;;;;;5.90;5.40;;;;;;;;;;5099125;28;20291;-63
2023/09/11 04:29:32;;;;;;;5.55;5.15;;;;;;;;;;5098046;28;20286;-63
2023/09/11 04:31:59;;;;;;;5.80;5.40;;;;;;;;;;5097808;28;20220;-63
2023/09/11 04:34:26;;;;;;;5.95;5.45;;;;;;;;;;5097849;28;20199;-63
2023/09/11 04:36:54;;;;;;;5.43;5.03;;;;;;;;;;5098233;28;20204;-63
2023/09/11 04:39:23;;;;;;;5.80;5.40;;;;;;;;;;5098288;28;20226;-63
2023/09/11 04:41:51;;;;;;;5.43;5.03;;;;;;;;;;5098051;28;20231;-63
2023/09/11 04:44:19;;;;;;;5.80;5.40;;;;;;;;;;5098651;28;20204;-64
2023/09/11 04:46:46;;;;;;;5.70;5.30;;;;;;;;;;5097242;28;20202;-64
2023/09/11 04:49:13;;;;;;;6.22;5.72;;;;;;;;;;5096781;28;20208;-64
2023/09/11 04:51:41;;;;;;;5.30;4.90;;;;;;;;;;5096613;28;20250;-64
2023/09/11 04:54:09;;;;;;;5.20;4.80;;;;;;;;;;5096964;28;20211;-64
2023/09/11 04:56:37;;;;;;;5.70;5.20;;;;;;;;;;5095915;28;20370;-63
2023/09/11 04:59:05;;;;;;;5.80;5.40;;;;;;;;;;5095569;28;20238;-63
2023/09/11 05:01:33;;;;;;;6.00;5.50;;;;;;;;;;5096363;28;20207;-63
2023/09/11 05:04:01;;;;;;;5.70;5.30;;;;;;;;;;5095399;28;20249;-64
2023/09/11 05:06:28;;;;;;;5.35;4.95;;;;;;;;;;5095491;28;20203;-64
2023/09/11 05:08:56;;;;;;;4.90;4.60;;;;;;;;;;5094968;28;20199;-64
2023/09/11 05:11:24;;;;;;;5.55;5.15;;;;;;;;;;5095031;28;20580;-64
2023/09/11 05:13:52;;;;;;;5.55;5.10;;;;;;;;;;5095137;28;20294;-64
2023/09/11 05:16:20;;;;;;;5.93;5.53;;;;;;;;;;5095263;28;20770;-64
2023/09/11 05:18:49;;;;;;;5.57;5.18;;;;;;;;;;5094356;28;20235;-64
2023/09/11 05:21:16;;;;;;;5.43;5.03;;;;;;;;;;5095624;28;20207;-64
2023/09/11 05:23:44;;;;;;;5.75;5.35;;;;;;;;;;5095198;28;20290;-64
2023/09/11 05:26:11;;;;;;;5.85;5.35;;;;;;;;;;5095779;28;20336;-64
2023/09/11 05:28:39;;;;;;;5.55;5.15;;;;;;;;;;5095486;28;20234;-64
2023/09/11 05:31:09;;;;;;;5.60;5.10;;;;;;;;;;5082993;28;20256;-64
2023/09/11 05:33:36;;;;;;;5.75;5.25;;;;;;;;;;5074866;28;20287;-64
2023/09/11 05:36:05;;;;;;;5.80;5.40;;;;;;;;;;5074986;28;20523;-64
2023/09/11 05:38:32;;;;;;;5.70;5.30;;;;;;;;;;5075282;28;20200;-64
2023/09/11 05:41:00;;;;;;;5.78;5.38;;;;;;;;;;5074963;28;20303;-64
2023/09/11 05:43:28;;;;;;;5.82;5.43;;;;;;;;;;5074750;28;20244;-64
2023/09/11 05:45:56;;;;;;;5.85;5.45;;;;;;;;;;5074125;28;20204;-64
2023/09/11 05:48:25;;;;;;;5.60;5.10;;;;;;;;;;5072987;28;20266;-64
2023/09/11 05:50:52;;;;;;;5.30;4.90;;;;;;;;;;5074053;28;20214;-64
2023/09/11 05:53:19;;;;;;;5.85;5.45;;;;;;;;;;5074275;28;20291;-63
2023/09/11 05:55:47;;;;;;;5.57;5.18;;;;;;;;;;5074941;28;20215;-63
2023/09/11 05:58:14;;;;;;;5.60;5.20;;;;;;;;;;5074033;28;20327;-63
2023/09/11 06:00:42;;;;;;;5.80;5.30;;;;;;;;;;5074969;28;20505;-63
2023/09/11 06:03:09;;;;;;;6.20;5.78;;;;;;;;;;5074934;28;20236;-63
2023/09/11 06:05:39;;;;;;;5.60;5.10;;;;;;;;;;5075056;28;20314;-63
2023/09/11 06:08:07;;;;;;;5.55;5.10;;;;;;;;;;5074779;28;20210;-63
2023/09/11 06:10:35;;;;;;;5.50;5.10;;;;;;;;;;5074822;28;20290;-63
2023/09/11 06:13:03;;;;;;;5.60;5.20;;;;;;;;;;5074462;28;20322;-63
2023/09/11 06:15:30;;;;;;;6.18;5.68;;;;;;;;;;5074316;28;20210;-63
2023/09/11 06:17:58;;;;;;;5.70;5.30;;;;;;;;;;5074573;28;20296;-63
2023/09/11 06:20:25;;;;;;;5.88;5.38;;;;;;;;;;5074425;28;20204;-63
2023/09/11 06:22:54;;;;;;;6.53;5.30;;;;;;;;;;5074924;28;20243;-63
2023/09/11 06:25:22;;;;;;;6.38;5.80;;;;;;;;;;5074610;28;20215;-64
2023/09/11 06:27:50;;;;;;;5.57;5.18;;;;;;;;;;5075161;28;20204;-63
2023/09/11 06:30:17;;;;;;;5.82;5.43;;;;;;;;;;5075344;28;20204;-63
2023/09/11 06:32:45;;;;;;;5.72;5.22;;;;;;;;;;5074495;28;20323;-64
2023/09/11 06:35:12;;;;;;;6.20;5.70;;;;;;;;;;5075078;28;20204;-64
2023/09/11 06:37:40;;;;;;;5.45;5.05;;;;;;;;;;5074082;28;20262;-64
2023/09/11 06:40:10;;;;;;;5.82;5.43;;;;;;;;;;5074150;28;20207;-64
2023/09/11 06:42:38;;;;;;;5.70;5.30;;;;;;;;;;5074246;28;20278;-64
2023/09/11 06:45:05;;;;;;;5.40;5.00;;;;;;;;;;5074728;28;20204;-64
2023/09/11 06:47:33;;;;;;;5.93;5.53;;;;;;;;;;5074863;28;20251;-64
2023/09/11 06:50:00;;;;;;;6.10;5.70;;;;;;;;;;5074148;28;20506;-64
2023/09/11 06:52:28;;;;;;;5.90;5.50;;;;;;;;;;5076649;28;20365;-63
2023/09/11 06:54:55;;;;;;;6.22;5.72;;;;;;;;;;5077848;28;20214;-63
2023/09/11 06:57:24;;;;;;;6.50;6.00;;;;;;;;;;5077974;28;20236;-64
2023/09/11 06:59:53;;;;;;;6.28;5.63;;;;;;;;;;5077944;28;20262;-64
2023/09/11 07:02:21;;;;;;;5.78;5.38;;;;;;;;;;5077494;28;20234;-63
2023/09/11 07:04:48;;;;;;;5.72;5.32;;;;;;;;;;5077897;28;20208;-64
2023/09/11 07:07:16;;;;;;;5.68;5.28;;;;;;;;;;5077883;28;20306;-64
2023/09/11 07:09:43;;;;;;;5.50;5.00;;;;;;;;;;5077828;28;20251;-64
2023/09/11 07:12:11;;;;;;;5.78;5.38;;;;;;;;;;5077624;28;20631;-64
2023/09/11 07:14:40;;;;;;;5.75;5.35;;;;;;;;;;5076276;28;20265;-64
2023/09/11 07:17:07;;;;;;;5.75;5.32;;;;;;;;;;5077623;28;20259;-64
2023/09/11 07:19:35;;;;;;;6.15;5.65;;;;;;;;;;5077222;28;20223;-64
2023/09/11 07:22:03;;;;;;;5.90;5.50;;;;;;;;;;5078069;28;20299;-64
2023/09/11 07:24:30;;;;;;;5.57;5.18;;;;;;;;;;5078281;28;20220;-63
2023/09/11 07:26:58;;;;;;;5.97;5.57;;;;;;;;;;5078760;28;20305;-63
2023/09/11 07:29:26;;;;;;;5.68;5.18;;;;;;;;;;5078660;28;20251;-63
2023/09/11 07:31:55;;;;;;;6.13;5.63;;;;;;;;;;5078628;28;20652;-63
2023/09/11 07:34:23;;;;;;;5.13;4.72;;;;;;;;;;5078933;28;20589;-63
2023/09/11 07:36:50;;;;;;;5.80;5.40;;;;;;;;;;5079701;28;20247;-63
2023/09/11 07:39:18;;;;;;;5.72;5.25;;;;;;;;;;5078865;28;20572;-63
2023/09/11 07:41:47;;;;;;;5.32;4.93;;;;;;;;;;5079324;28;20299;-64
2023/09/11 07:44:15;;;;;;;5.43;4.95;;;;;;;;;;5078524;28;20258;-63
2023/09/11 07:46:42;;;;;;;5.70;5.30;;;;;;;;;;5078611;28;20277;-63
2023/09/11 07:49:11;;;;;;;5.75;5.35;;;;;;;;;;5078335;28;20299;-63
2023/09/11 07:51:39;;;;;;;5.70;5.30;;;;;;;;;;5078302;28;20315;-63
2023/09/11 07:54:06;;;;;;;5.38;4.97;;;;;;;;;;5078328;28;20287;-63
2023/09/11 07:56:34;;;;;;;5.22;4.82;;;;;;;;;;5078075;28;20311;-63
2023/09/11 07:59:01;;;;;;;5.40;5.00;;;;;;;;;;5078280;28;20534;-63
2023/09/11 08:01:29;;;;;;;5.43;5.00;;;;;;;;;;5077525;28;20219;-63
2023/09/11 08:03:56;;;;;;;5.20;4.80;;;;;;;;;;5076840;28;20723;-63
2023/09/11 08:06:25;;;;;;;5.70;5.28;;;;;;;;;;5077442;28;20205;-64
2023/09/11 08:08:52;;;;;;;5.30;4.90;;;;;;;;;;5077668;28;20296;-63
2023/09/11 08:11:20;;;;;;;5.45;5.05;;;;;;;;;;5077532;28;20239;-63
2023/09/11 08:13:50;;;;;;;5.57;5.18;;;;;;;;;;5076903;28;20231;-63
2023/09/11 08:16:19;;;;;;;5.50;5.10;;;;;;;;;;5076943;28;20204;-63
2023/09/11 08:18:47;;;;;;;5.32;4.93;;;;;;;;;;5077417;28;20308;-63
2023/09/11 08:21:14;;;;;;;5.45;5.05;;;;;;;;;;5077239;28;20684;-63
2023/09/11 08:23:45;;;;;;;5.20;4.80;;;;;;;;;;5077860;28;20295;-63
2023/09/11 08:26:12;;;;;;;5.65;5.25;;;;;;;;;;5077492;28;20212;-63
2023/09/11 08:28:40;;;;;;;5.30;4.90;;;;;;;;;;5077048;28;20667;-63
2023/09/11 08:31:07;;;;;;;5.68;5.28;;;;;;;;;;5076905;28;20266;-64
2023/09/11 08:33:35;;;;;;;4.85;4.55;;;;;;;;;;5076523;28;20319;-63
2023/09/11 08:36:02;;;;;;;5.28;4.88;;;;;;;;;;5076859;28;20596;-63
2023/09/11 08:38:30;;;;;;;5.40;5.00;;;;;;;;;;5076943;28;20288;-63
2023/09/11 08:40:59;;;;;;;5.40;5.00;;;;;;;;;;5076739;28;20725;-63
2023/09/11 08:43:26;;;;;;;5.13;4.72;;;;;;;;;;5076805;28;20319;-63
2023/09/11 08:45:56;;;;;;;6.00;5.60;;;;;;;;;;5076279;28;20312;-63
2023/09/11 08:48:26;;;;;;;6.18;5.68;;;;;;;;;;5075606;28;20204;-64
2023/09/11 08:50:55;;;;;;;5.82;5.43;;;;;;;;;;5076548;28;20295;-63
2023/09/11 08:53:24;;;;;;;6.63;6.13;;;;;;;;;;5077254;28;20439;-63
2023/09/11 08:55:52;;;;;;;6.78;6.28;;;;;;;;;;5076952;28;20243;-63
2023/09/11 08:58:22;;;;;;;6.50;6.00;;;;;;;;;;5076422;28;20236;-63
2023/09/11 09:00:49;;;;;;;6.50;5.90;;;;;;;;;;5076872;28;20629;-63
2023/09/11 09:03:17;;;;;;;7.15;6.55;;;;;;;;;;5076031;28;20201;-64
2023/09/11 09:05:45;;;;;;;6.75;6.15;;;;;;;;;;5075252;28;20248;-63
2023/09/11 09:08:14;;;;;;;6.82;6.32;;;;;;;;;;5076141;28;20299;-63
2023/09/11 09:10:43;;;;;;;6.90;6.40;;;;;;;;;;5075944;28;20307;-63
2023/09/11 09:13:11;;;;;;;6.47;5.97;;;;;;;;;;5076517;28;20362;-63
2023/09/11 09:15:41;;;;;;;7.03;6.53;;;;;;;;;;5076365;28;20205;-63
2023/09/11 09:18:08;;;;;;;7.07;6.57;;;;;;;;;;5075496;28;20215;-63
2023/09/11 09:20:36;;;;;;;7.00;6.40;;;;;;;;;;5076324;28;20247;-63
2023/09/11 09:23:03;;;;;;;7.10;6.60;;;;;;;;;;5075782;28;20192;-64
2023/09/11 09:25:32;;;;;;;7.13;6.53;;;;;;;;;;5075937;28;20287;-63
2023/09/11 09:28:00;;;;;;;7.47;6.88;;;;;;;;;;5074066;28;20301;-63
2023/09/11 09:30:28;;;;;;;7.22;6.63;;;;;;;;;;5074134;28;20212;-63
2023/09/11 09:32:57;;;;;;;7.35;6.75;;;;;;;;;;5074816;28;20601;-64
2023/09/11 09:35:26;;;;;;;7.60;7.00;;;;;;;;;;5076025;28;20287;-63
2023/09/11 09:37:55;;;;;;;7.38;6.78;;;;;;;;;;5074983;28;20306;-63
2023/09/11 09:40:33;;;;;;;7.35;6.75;;;;;;;;;;5074572;28;20307;-63
2023/09/11 09:43:01;;;;;;;7.00;6.50;;;;;;;;;;5075193;28;20299;-63
2023/09/11 09:45:33;;;;;;;7.07;6.57;;;;;;;;;;5074587;28;20240;-63
2023/09/11 09:48:09;;;;;;;7.25;6.70;;;;;;;;;;5074078;28;20285;-63
2023/09/11 09:51:01;;;;;;;7.65;7.05;;;;;;;;;;5074270;28;20204;-63
2023/09/11 09:53:30;;;;;;;7.22;6.63;;;;;;;;;;5053500;28;20806;-63
2023/09/11 09:56:01;;;;;;;7.43;6.82;;;;;;;;;;5074582;28;20207;-63
2023/09/11 09:58:28;;;;;;;7.32;6.57;;;;;;;;;;5074321;28;20236;-63
2023/09/11 10:01:00;;;;;;;7.53;6.68;;;;;;;;;;5075104;28;20604;-63
2023/09/11 10:03:30;;;;;;;7.28;6.57;;;;;;;;;;5074538;28;20196;-63
2023/09/11 10:05:59;;;;;;;6.88;6.35;;;;;;;;;;5074741;28;20215;-63
2023/09/11 10:08:27;;;;;;;7.00;6.50;;;;;;;;;;5074333;28;20208;-62
2023/09/11 10:10:54;;;;;;;7.03;6.43;;;;;;;;;;5074547;28;20212;-62
2023/09/11 10:13:24;;;;;;;9.00;6.97;;;;;;;;;;5074663;28;20285;-62
2023/09/11 10:15:52;;;;;;;7.25;6.65;;;;;;;;;;5074262;28;20487;-62
2023/09/11 10:18:20;;;;;;;7.50;6.80;;;;;;;;;;5074081;28;20455;-62
2023/09/11 10:20:49;;;;;;;7.13;6.53;;;;;;;;;;5073599;28;20204;-62
2023/09/11 10:23:17;;;;;;;6.97;6.45;;;;;;;;;;5075227;28;20231;-62
2023/09/11 10:25:46;;;;;;;7.50;6.80;;;;;;;;;;5073940;28;20211;-62
2023/09/11 10:28:15;;;;;;;7.03;6.53;;;;;;;;;;5073550;28;20277;-62
2023/09/11 10:30:47;;;;;;;7.28;6.68;;;;;;;;;;5073994;28;20208;-62
2023/09/11 10:33:18;;;;;;;7.55;6.85;;;;;;;;;;5073175;28;20255;-63
2023/09/11 10:35:47;;;;;;;7.45;6.90;;;;;;;;;;5073743;28;20223;-63
2023/09/11 10:38:17;;;;;;;7.30;6.70;;;;;;;;;;5073339;28;20206;-63
2023/09/11 10:40:45;;;;;;;7.35;6.63;;;;;;;;;;5074418;28;20672;-63
2023/09/11 10:43:13;;;;;;;7.35;6.75;;;;;;;;;;5073629;28;20295;-63
2023/09/11 10:45:40;;;;;;;7.55;6.85;;;;;;;;;;5073309;28;20544;-63
2023/09/11 10:48:26;;;;;;;7.22;6.72;;;;;;;;;;5072328;28;20293;-63
2023/09/11 10:50:53;;;;;;;7.40;6.80;;;;;;;;;;5073636;28;20306;-63
2023/09/11 10:53:22;;;;;;;7.43;6.82;;;;;;;;;;5074561;28;20488;-63
2023/09/11 10:55:50;;;;;;;7.32;6.72;;;;;;;;;;5074367;28;20489;-63
2023/09/11 10:58:18;;;;;;;7.53;6.93;;;;;;;;;;5074410;28;20228;-63
2023/09/11 11:00:46;;;;;;;7.70;7.10;;;;;;;;;;5073734;28;20208;-63
2023/09/11 11:03:15;;;;;;;7.45;6.80;;;;;;;;;;5074099;28;20333;-63
2023/09/11 11:05:43;;;;;;;7.25;6.75;;;;;;;;;;5073831;28;20212;-63
2023/09/11 11:08:10;;;;;;;7.68;7.05;;;;;;;;;;5073631;28;20204;-63
2023/09/11 11:10:41;;;;;;;7.80;7.18;;;;;;;;;;5074221;28;20232;-62
2023/09/11 11:13:11;;;;;;;8.07;7.47;;;;;;;;;;5073269;28;20238;-62
2023/09/11 11:15:38;;;;;;;7.55;6.95;;;;;;;;;;5073355;28;20301;-62
2023/09/11 11:18:09;;;;;;;7.50;6.90;;;;;;;;;;5073693;28;20204;-62
2023/09/11 11:20:38;;;;;;;8.20;7.57;;;;;;;;;;5073530;28;20242;-62
2023/09/11 11:23:09;;;;;;;7.72;7.13;;;;;;;;;;5073114;28;20223;-63
2023/09/11 11:25:37;;;;;;;7.80;7.20;;;;;;;;;;5072695;28;20299;-63
2023/09/11 11:28:17;;;;;;;7.43;6.90;;;;;;;;;;5072484;28;20358;-63
2023/09/11 11:30:45;;;;;;;7.97;7.28;;;;;;;;;;5072051;28;20243;-63
2023/09/11 11:33:15;;;;;;;7.30;6.80;;;;;;;;;;5072676;28;20224;-63
2023/09/11 11:35:45;;;;;;;7.70;7.10;;;;;;;;;;5072433;28;20204;-63
2023/09/11 11:38:15;;;;;;;7.07;6.57;;;;;;;;;;5072675;28;20208;-63
2023/09/11 11:40:43;;;;;;;7.18;6.57;;;;;;;;;;5075649;28;20322;-62
2023/09/11 11:43:10;;;;;;;7.80;7.10;;;;;;;;;;5076236;28;20239;-63
2023/09/11 11:45:43;;;;;;;7.35;6.78;;;;;;;;;;5076060;28;20206;-63
2023/09/11 11:48:12;;;;;;;7.78;7.18;;;;;;;;;;5077000;28;20215;-63
2023/09/11 11:50:42;;;;;;;7.55;7.00;;;;;;;;;;5076482;28;20213;-63
2023/09/11 11:53:15;;;;;;;7.53;6.93;;;;;;;;;;5076439;28;20228;-63
2023/09/11 11:55:43;;;;;;;6.90;6.38;;;;;;;;;;5076720;28;20200;-63
2023/09/11 11:58:12;;;;;;;7.53;6.93;;;;;;;;;;5074773;28;20240;-63
2023/09/11 12:00:41;;;;;;;7.32;6.72;;;;;;;;;;5075897;28;20200;-63
2023/09/11 12:03:09;;;;;;;7.30;6.80;;;;;;;;;;5076121;28;20239;-63
2023/09/11 12:05:38;;;;;;;7.32;6.82;;;;;;;;;;5076901;28;20258;-63
2023/09/11 12:08:06;;;;;;;7.20;6.60;;;;;;;;;;5076203;28;20208;-63
2023/09/11 12:10:35;;;;;;;7.28;6.68;;;;;;;;;;5076674;28;20200;-63
2023/09/11 12:13:02;;;;;;;7.60;7.00;;;;;;;;;;5076950;28;20444;-63
2023/09/11 12:15:30;;;;;;;6.63;6.13;;;;;;;;;;5076958;28;20223;-63
2023/09/11 12:17:59;;;;;;;7.03;6.53;;;;;;;;;;5076852;28;20626;-63
2023/09/11 12:20:27;;;;;;;7.38;6.85;;;;;;;;;;5074385;28;20220;-63
2023/09/11 12:22:55;;;;;;;7.25;6.65;;;;;;;;;;5057346;28;20201;-62
2023/09/11 12:25:22;;;;;;;7.38;6.78;;;;;;;;;;5056340;28;20314;-62
2023/09/11 12:27:50;;;;;;;6.88;6.38;;;;;;;;;;5055342;28;20531;-62
2023/09/11 12:30:17;;;;;;;6.57;6.07;;;;;;;;;;5055383;28;20617;-62
2023/09/11 12:32:46;;;;;;;6.82;6.32;;;;;;;;;;5054831;28;20197;-62
2023/09/11 12:35:15;;;;;;;7.13;6.63;;;;;;;;;;5054891;28;20293;-62
2023/09/11 12:37:42;;;;;;;6.40;6.00;;;;;;;;;;5055283;28;20241;-62
2023/09/11 12:40:10;;;;;;;6.60;6.10;;;;;;;;;;5056086;28;20266;-62
2023/09/11 12:42:39;;;;;;;7.40;6.72;;;;;;;;;;5055564;28;20270;-62
2023/09/11 12:45:07;;;;;;;7.20;6.70;;;;;;;;;;5054631;28;20204;-62
2023/09/11 12:47:36;;;;;;;7.28;6.78;;;;;;;;;;5055059;28;20240;-62
2023/09/11 12:50:03;;;;;;;6.80;6.30;;;;;;;;;;5055097;28;20205;-62
2023/09/11 12:52:33;;;;;;;7.65;6.95;;;;;;;;;;5054821;28;20249;-62
2023/09/11 12:55:01;;;;;;;6.95;6.32;;;;;;;;;;5055171;28;20268;-62
2023/09/11 12:57:28;;;;;;;6.57;6.07;;;;;;;;;;5055641;28;20580;-62
2023/09/11 12:59:55;;;;;;;6.88;6.38;;;;;;;;;;5054951;28;20205;-62
2023/09/11 13:02:23;;;;;;;7.28;6.68;;;;;;;;;;5055325;28;20580;-62
2023/09/11 13:04:51;;;;;;;7.00;6.50;;;;;;;;;;5055126;28;20224;-62
2023/09/11 13:07:21;;;;;;;6.78;6.28;;;;;;;;;;5055611;28;20695;-63
2023/09/11 13:09:50;;;;;;;6.80;6.25;;;;;;;;;;5055207;28;20209;-63
2023/09/11 13:12:17;;;;;;;6.95;6.45;;;;;;;;;;5055332;28;20197;-63
2023/09/11 13:14:45;;;;;;;6.55;6.05;;;;;;;;;;5055479;28;20327;-63
2023/09/11 13:17:12;;;;;;;6.80;6.30;;;;;;;;;;5055087;28;20655;-63
2023/09/11 13:19:39;;;;;;;6.78;6.28;;;;;;;;;;5055510;28;20296;-63
2023/09/11 13:22:07;;;;;;;6.70;6.20;;;;;;;;;;5054088;28;20201;-63
2023/09/11 13:24:34;;;;;;;6.50;6.00;;;;;;;;;;5054701;28;20293;-63
2023/09/11 13:27:03;;;;;;;6.20;5.70;;;;;;;;;;5054893;28;20317;-63
2023/09/11 13:29:31;;;;;;;6.55;6.05;;;;;;;;;;5054698;28;20205;-63
2023/09/11 13:31:58;;;;;;;6.38;5.88;;;;;;;;;;5054900;28;20197;-63
2023/09/11 13:34:26;;;;;;;6.28;5.88;;;;;;;;;;5055134;28;20229;-64
2023/09/11 13:36:58;;;;;;;6.43;5.93;;;;;;;;;;5054701;28;20299;-63
2023/09/11 13:39:25;;;;;;;6.38;5.88;;;;;;;;;;5054684;28;20205;-63
2023/09/11 13:41:52;;;;;;;6.85;6.25;;;;;;;;;;5054930;28;20218;-63
2023/09/11 13:44:21;;;;;;;6.32;5.72;;;;;;;;;;5054260;28;20239;-63
2023/09/11 13:46:49;;;;;;;6.80;6.30;;;;;;;;;;5053540;28;20793;-63
2023/09/11 13:49:18;;;;;;;5.97;5.57;;;;;;;;;;5054199;28;20227;-63
2023/09/11 13:51:45;;;;;;;6.57;6.07;;;;;;;;;;5054819;28;20213;-63
2023/09/11 13:54:13;;;;;;;6.20;5.80;;;;;;;;;;5054200;28;20310;-63
2023/09/11 13:56:40;;;;;;;6.32;5.82;;;;;;;;;;5053770;28;20295;-63
2023/09/11 13:59:07;;;;;;;5.90;5.50;;;;;;;;;;5053444;28;20228;-63
2023/09/11 14:01:36;;;;;;;6.15;5.65;;;;;;;;;;5053381;28;20270;-63
2023/09/11 14:04:05;;;;;;;5.70;5.30;;;;;;;;;;5053525;28;20208;-63
2023/09/11 14:06:33;;;;;;;6.25;5.80;;;;;;;;;;5053645;28;20201;-63
2023/09/11 14:09:00;;;;;;;6.30;5.80;;;;;;;;;;5053537;28;20212;-63
2023/09/11 14:11:28;;;;;;;6.00;5.50;;;;;;;;;;5053914;28;20270;-63
2023/09/11 14:13:55;;;;;;;6.10;5.60;;;;;;;;;;5053017;28;20310;-63
2023/09/11 14:16:23;;;;;;;6.07;5.68;;;;;;;;;;5053253;28;20714;-63
2023/09/11 14:18:52;;;;;;;6.25;5.65;;;;;;;;;;5053940;28;20231;-63
2023/09/11 14:21:20;;;;;;;6.18;5.68;;;;;;;;;;5053338;28;20205;-63
2023/09/11 14:23:47;;;;;;;6.60;6.10;;;;;;;;;;5053948;28;20402;-63
2023/09/11 14:26:15;;;;;;;6.00;5.50;;;;;;;;;;5053452;28;20197;-63
2023/09/11 14:28:43;;;;;;;6.18;5.68;;;;;;;;;;5054085;28;20299;-63
2023/09/11 14:31:10;;;;;;;5.72;5.25;;;;;;;;;;5053568;28;20599;-63
2023/09/11 14:33:38;;;;;;;5.75;5.35;;;;;;;;;;5053699;28;20503;-63
2023/09/11 14:36:07;;;;;;;5.57;5.18;;;;;;;;;;5052342;28;20239;-63
2023/09/11 14:38:34;;;;;;;5.85;5.40;;;;;;;;;;5054733;28;20324;-63
2023/09/11 14:41:02;;;;;;;5.88;5.38;;;;;;;;;;5054120;28;20299;-64
2023/09/11 14:43:30;;;;;;;5.80;5.30;;;;;;;;;;5053590;28;20266;-64
2023/09/11 14:45:57;;;;;;;5.85;5.45;;;;;;;;;;5054110;28;20271;-63
2023/09/11 14:48:24;;;;;;;6.07;5.65;;;;;;;;;;5054282;28;20303;-63
2023/09/11 14:50:52;;;;;;;5.30;4.90;;;;;;;;;;5054213;28;20208;-63